<?xml version="1.0" encoding="UTF-8" standalone="no" ?>
<gpx xmlns="http://www.topografix.com/GPX/1/1" xmlns:xsi="http://www.w3.org/2001/XMLSchema-instance" xsi:schemaLocation="http://www.topografix.com/GPX/1/1 http://www.topografix.com/GPX/1/1/gpx.xsd" version="1.1" creator="VisuGPX - https://www.visugpx.com">
  <metadata>
    <name>ARQUES LA SEYNE SUR MER 1497 KM</name>
    <desc><![CDATA[Rando de Arques dans le Pas de Calais jusque La Seyne sur Mer dans le Var, 1497 km]]></desc>
  </metadata>
  <trk>
    <name><![CDATA[59 - LA CIOTAT BANDOL LA SEYNE SUR MER 31.7 KM]]></name>
    <extensions>
      <line xmlns="http://www.topografix.com/GPX/gpx_style/0/2">
        <color>008888</color>
        <width>4</width>
      </line>
    </extensions>
    <trkseg>
      <trkpt lat="43.1778" lon="5.60773">
        <ele>17</ele>
        <time>2021-12-20T17:10:34+01:00</time>
      </trkpt>
      <trkpt lat="43.17751" lon="5.60927">
        <ele>13</ele>
        <time>2021-12-20T17:10:39+01:00</time>
      </trkpt>
      <trkpt lat="43.17884" lon="5.61063">
        <ele>8</ele>
        <time>2021-12-20T17:10:44+01:00</time>
      </trkpt>
      <trkpt lat="43.18008" lon="5.61128">
        <ele>8</ele>
        <time>2021-12-20T17:10:49+01:00</time>
      </trkpt>
      <trkpt lat="43.18089" lon="5.6121">
        <ele>8</ele>
        <time>2021-12-20T17:10:54+01:00</time>
      </trkpt>
      <trkpt lat="43.18083" lon="5.61244">
        <ele>5</ele>
        <time>2021-12-20T17:10:59+01:00</time>
      </trkpt>
      <trkpt lat="43.1814" lon="5.61344">
        <ele>2</ele>
        <time>2021-12-20T17:11:04+01:00</time>
      </trkpt>
      <trkpt lat="43.18245" lon="5.61491">
        <ele>2</ele>
        <time>2021-12-20T17:11:09+01:00</time>
      </trkpt>
      <trkpt lat="43.18353" lon="5.61661">
        <ele>1</ele>
        <time>2021-12-20T17:11:14+01:00</time>
      </trkpt>
      <trkpt lat="43.18469" lon="5.61785">
        <ele>2</ele>
        <time>2021-12-20T17:11:19+01:00</time>
      </trkpt>
      <trkpt lat="43.18583" lon="5.62057">
        <ele>1</ele>
        <time>2021-12-20T17:11:24+01:00</time>
      </trkpt>
      <trkpt lat="43.18638" lon="5.62162">
        <ele>1</ele>
        <time>2021-12-20T17:11:29+01:00</time>
      </trkpt>
      <trkpt lat="43.18709" lon="5.62349">
        <ele>1</ele>
        <time>2021-12-20T17:11:34+01:00</time>
      </trkpt>
      <trkpt lat="43.18723" lon="5.6258">
        <ele>1</ele>
        <time>2021-12-20T17:11:39+01:00</time>
      </trkpt>
      <trkpt lat="43.18735" lon="5.6263">
        <ele>1</ele>
        <time>2021-12-20T17:11:44+01:00</time>
      </trkpt>
      <trkpt lat="43.18836" lon="5.62693">
        <ele>5</ele>
        <time>2021-12-20T17:11:49+01:00</time>
      </trkpt>
      <trkpt lat="43.18889" lon="5.62787">
        <ele>7</ele>
        <time>2021-12-20T17:11:54+01:00</time>
      </trkpt>
      <trkpt lat="43.18957" lon="5.62854">
        <ele>8</ele>
        <time>2021-12-20T17:11:59+01:00</time>
      </trkpt>
      <trkpt lat="43.18922" lon="5.63064">
        <ele>6</ele>
        <time>2021-12-20T17:12:04+01:00</time>
      </trkpt>
      <trkpt lat="43.18904" lon="5.6326">
        <ele>10</ele>
        <time>2021-12-20T17:12:09+01:00</time>
      </trkpt>
      <trkpt lat="43.18917" lon="5.63415">
        <ele>7</ele>
        <time>2021-12-20T17:12:14+01:00</time>
      </trkpt>
      <trkpt lat="43.18991" lon="5.63621">
        <ele>9</ele>
        <time>2021-12-20T17:12:19+01:00</time>
      </trkpt>
      <trkpt lat="43.1905" lon="5.63831">
        <ele>10</ele>
        <time>2021-12-20T17:12:24+01:00</time>
      </trkpt>
      <trkpt lat="43.19075" lon="5.64094">
        <ele>11</ele>
        <time>2021-12-20T17:12:29+01:00</time>
      </trkpt>
      <trkpt lat="43.18996" lon="5.64328">
        <ele>12</ele>
        <time>2021-12-20T17:12:34+01:00</time>
      </trkpt>
      <trkpt lat="43.18907" lon="5.64377">
        <ele>2</ele>
        <time>2021-12-20T17:12:39+01:00</time>
      </trkpt>
      <trkpt lat="43.18784" lon="5.64511">
        <ele>1</ele>
        <time>2021-12-20T17:12:44+01:00</time>
      </trkpt>
      <trkpt lat="43.18764" lon="5.64721">
        <ele>1</ele>
        <time>2021-12-20T17:12:49+01:00</time>
      </trkpt>
      <trkpt lat="43.18825" lon="5.64773">
        <ele>2</ele>
        <time>2021-12-20T17:12:54+01:00</time>
      </trkpt>
      <trkpt lat="43.18889" lon="5.65155">
        <ele>11</ele>
        <time>2021-12-20T17:12:59+01:00</time>
      </trkpt>
      <trkpt lat="43.1881" lon="5.6527">
        <ele>18</ele>
        <time>2021-12-20T17:13:04+01:00</time>
      </trkpt>
      <trkpt lat="43.18708" lon="5.65403">
        <ele>21</ele>
        <time>2021-12-20T17:13:09+01:00</time>
      </trkpt>
      <trkpt lat="43.18677" lon="5.65701">
        <ele>23</ele>
        <time>2021-12-20T17:13:14+01:00</time>
      </trkpt>
      <trkpt lat="43.18596" lon="5.65943">
        <ele>21</ele>
        <time>2021-12-20T17:13:19+01:00</time>
      </trkpt>
      <trkpt lat="43.18527" lon="5.66176">
        <ele>13</ele>
        <time>2021-12-20T17:13:24+01:00</time>
      </trkpt>
      <trkpt lat="43.18403" lon="5.66278">
        <ele>11</ele>
        <time>2021-12-20T17:13:29+01:00</time>
      </trkpt>
      <trkpt lat="43.1833" lon="5.6648">
        <ele>15</ele>
        <time>2021-12-20T17:13:34+01:00</time>
      </trkpt>
      <trkpt lat="43.18274" lon="5.66633">
        <ele>20</ele>
        <time>2021-12-20T17:13:39+01:00</time>
      </trkpt>
      <trkpt lat="43.18228" lon="5.66781">
        <ele>17</ele>
        <time>2021-12-20T17:13:44+01:00</time>
      </trkpt>
      <trkpt lat="43.18113" lon="5.6693">
        <ele>6</ele>
        <time>2021-12-20T17:13:49+01:00</time>
      </trkpt>
      <trkpt lat="43.18075" lon="5.67068">
        <ele>10</ele>
        <time>2021-12-20T17:13:54+01:00</time>
      </trkpt>
      <trkpt lat="43.18078" lon="5.67189">
        <ele>17</ele>
        <time>2021-12-20T17:13:59+01:00</time>
      </trkpt>
      <trkpt lat="43.18007" lon="5.67505">
        <ele>15</ele>
        <time>2021-12-20T17:14:04+01:00</time>
      </trkpt>
      <trkpt lat="43.17972" lon="5.67771">
        <ele>12</ele>
        <time>2021-12-20T17:14:09+01:00</time>
      </trkpt>
      <trkpt lat="43.17986" lon="5.67862">
        <ele>8</ele>
        <time>2021-12-20T17:14:14+01:00</time>
      </trkpt>
      <trkpt lat="43.1801" lon="5.68062">
        <ele>6</ele>
        <time>2021-12-20T17:14:19+01:00</time>
      </trkpt>
      <trkpt lat="43.18039" lon="5.68246">
        <ele>5</ele>
        <time>2021-12-20T17:14:24+01:00</time>
      </trkpt>
      <trkpt lat="43.18061" lon="5.68465">
        <ele>3</ele>
        <time>2021-12-20T17:14:29+01:00</time>
      </trkpt>
      <trkpt lat="43.18064" lon="5.68529">
        <ele>2</ele>
        <time>2021-12-20T17:14:34+01:00</time>
      </trkpt>
      <trkpt lat="43.18034" lon="5.68724">
        <ele>3</ele>
        <time>2021-12-20T17:14:39+01:00</time>
      </trkpt>
      <trkpt lat="43.17918" lon="5.68906">
        <ele>2</ele>
        <time>2021-12-20T17:14:44+01:00</time>
      </trkpt>
      <trkpt lat="43.17758" lon="5.69054">
        <ele>1</ele>
        <time>2021-12-20T17:14:49+01:00</time>
      </trkpt>
      <trkpt lat="43.17259" lon="5.69548">
        <ele>2</ele>
        <time>2021-12-20T17:14:54+01:00</time>
      </trkpt>
      <trkpt lat="43.16646" lon="5.69461">
        <ele>3</ele>
        <time>2021-12-20T17:14:59+01:00</time>
      </trkpt>
      <trkpt lat="43.16574" lon="5.69446">
        <ele>4</ele>
        <time>2021-12-20T17:15:04+01:00</time>
      </trkpt>
      <trkpt lat="43.16501" lon="5.69484">
        <ele>13</ele>
        <time>2021-12-20T17:15:09+01:00</time>
      </trkpt>
      <trkpt lat="43.16449" lon="5.69564">
        <ele>19</ele>
        <time>2021-12-20T17:15:14+01:00</time>
      </trkpt>
      <trkpt lat="43.16364" lon="5.69627">
        <ele>27</ele>
        <time>2021-12-20T17:15:19+01:00</time>
      </trkpt>
      <trkpt lat="43.1629" lon="5.69695">
        <ele>31</ele>
        <time>2021-12-20T17:15:24+01:00</time>
      </trkpt>
      <trkpt lat="43.16145" lon="5.69751">
        <ele>41</ele>
        <time>2021-12-20T17:15:29+01:00</time>
      </trkpt>
      <trkpt lat="43.16104" lon="5.69792">
        <ele>43</ele>
        <time>2021-12-20T17:15:34+01:00</time>
      </trkpt>
      <trkpt lat="43.16031" lon="5.69858">
        <ele>49</ele>
        <time>2021-12-20T17:15:39+01:00</time>
      </trkpt>
      <trkpt lat="43.15984" lon="5.70073">
        <ele>70</ele>
        <time>2021-12-20T17:15:44+01:00</time>
      </trkpt>
      <trkpt lat="43.15999" lon="5.70148">
        <ele>71</ele>
        <time>2021-12-20T17:15:49+01:00</time>
      </trkpt>
      <trkpt lat="43.15993" lon="5.70399">
        <ele>68</ele>
        <time>2021-12-20T17:15:54+01:00</time>
      </trkpt>
      <trkpt lat="43.15796" lon="5.70588">
        <ele>72</ele>
        <time>2021-12-20T17:15:59+01:00</time>
      </trkpt>
      <trkpt lat="43.15661" lon="5.70635">
        <ele>83</ele>
        <time>2021-12-20T17:16:04+01:00</time>
      </trkpt>
      <trkpt lat="43.157" lon="5.70794">
        <ele>63</ele>
        <time>2021-12-20T17:16:09+01:00</time>
      </trkpt>
      <trkpt lat="43.15647" lon="5.70774">
        <ele>69</ele>
        <time>2021-12-20T17:16:14+01:00</time>
      </trkpt>
      <trkpt lat="43.15552" lon="5.7089">
        <ele>67</ele>
        <time>2021-12-20T17:16:19+01:00</time>
      </trkpt>
      <trkpt lat="43.1547" lon="5.7109">
        <ele>50</ele>
        <time>2021-12-20T17:16:24+01:00</time>
      </trkpt>
      <trkpt lat="43.15367" lon="5.71418">
        <ele>30</ele>
        <time>2021-12-20T17:16:29+01:00</time>
      </trkpt>
      <trkpt lat="43.15395" lon="5.71442">
        <ele>30</ele>
        <time>2021-12-20T17:16:34+01:00</time>
      </trkpt>
      <trkpt lat="43.15306" lon="5.71461">
        <ele>29</ele>
        <time>2021-12-20T17:16:39+01:00</time>
      </trkpt>
      <trkpt lat="43.15246" lon="5.71502">
        <ele>21</ele>
        <time>2021-12-20T17:16:44+01:00</time>
      </trkpt>
      <trkpt lat="43.15182" lon="5.715">
        <ele>20</ele>
        <time>2021-12-20T17:16:49+01:00</time>
      </trkpt>
      <trkpt lat="43.15118" lon="5.71476">
        <ele>20</ele>
        <time>2021-12-20T17:16:54+01:00</time>
      </trkpt>
      <trkpt lat="43.1506" lon="5.71532">
        <ele>20</ele>
        <time>2021-12-20T17:16:59+01:00</time>
      </trkpt>
      <trkpt lat="43.1491" lon="5.71564">
        <ele>28</ele>
        <time>2021-12-20T17:17:04+01:00</time>
      </trkpt>
      <trkpt lat="43.14874" lon="5.71532">
        <ele>29</ele>
        <time>2021-12-20T17:17:09+01:00</time>
      </trkpt>
      <trkpt lat="43.14846" lon="5.71543">
        <ele>31</ele>
        <time>2021-12-20T17:17:14+01:00</time>
      </trkpt>
      <trkpt lat="43.14882" lon="5.7162">
        <ele>39</ele>
        <time>2021-12-20T17:17:19+01:00</time>
      </trkpt>
      <trkpt lat="43.14869" lon="5.71682">
        <ele>48</ele>
        <time>2021-12-20T17:17:24+01:00</time>
      </trkpt>
      <trkpt lat="43.14831" lon="5.71736">
        <ele>41</ele>
        <time>2021-12-20T17:17:29+01:00</time>
      </trkpt>
      <trkpt lat="43.14788" lon="5.71837">
        <ele>34</ele>
        <time>2021-12-20T17:17:34+01:00</time>
      </trkpt>
      <trkpt lat="43.14787" lon="5.71899">
        <ele>27</ele>
        <time>2021-12-20T17:17:39+01:00</time>
      </trkpt>
      <trkpt lat="43.14817" lon="5.71943">
        <ele>38</ele>
        <time>2021-12-20T17:17:44+01:00</time>
      </trkpt>
      <trkpt lat="43.1478" lon="5.72029">
        <ele>53</ele>
        <time>2021-12-20T17:17:49+01:00</time>
      </trkpt>
      <trkpt lat="43.14687" lon="5.72072">
        <ele>52</ele>
        <time>2021-12-20T17:17:54+01:00</time>
      </trkpt>
      <trkpt lat="43.14562" lon="5.72152">
        <ele>60</ele>
        <time>2021-12-20T17:17:59+01:00</time>
      </trkpt>
      <trkpt lat="43.14483" lon="5.72179">
        <ele>62</ele>
        <time>2021-12-20T17:18:04+01:00</time>
      </trkpt>
      <trkpt lat="43.14355" lon="5.72167">
        <ele>56</ele>
        <time>2021-12-20T17:18:09+01:00</time>
      </trkpt>
      <trkpt lat="43.14312" lon="5.72181">
        <ele>59</ele>
        <time>2021-12-20T17:18:14+01:00</time>
      </trkpt>
      <trkpt lat="43.14286" lon="5.72182">
        <ele>57</ele>
        <time>2021-12-20T17:18:19+01:00</time>
      </trkpt>
      <trkpt lat="43.14262" lon="5.72207">
        <ele>64</ele>
        <time>2021-12-20T17:18:24+01:00</time>
      </trkpt>
      <trkpt lat="43.14241" lon="5.72182">
        <ele>52</ele>
        <time>2021-12-20T17:18:29+01:00</time>
      </trkpt>
      <trkpt lat="43.14219" lon="5.72197">
        <ele>56</ele>
        <time>2021-12-20T17:18:34+01:00</time>
      </trkpt>
      <trkpt lat="43.1419" lon="5.72183">
        <ele>45</ele>
        <time>2021-12-20T17:18:39+01:00</time>
      </trkpt>
      <trkpt lat="43.14136" lon="5.72224">
        <ele>44</ele>
        <time>2021-12-20T17:18:44+01:00</time>
      </trkpt>
      <trkpt lat="43.14066" lon="5.72266">
        <ele>36</ele>
        <time>2021-12-20T17:18:49+01:00</time>
      </trkpt>
      <trkpt lat="43.13996" lon="5.72386">
        <ele>44</ele>
        <time>2021-12-20T17:18:54+01:00</time>
      </trkpt>
      <trkpt lat="43.13917" lon="5.72393">
        <ele>41</ele>
        <time>2021-12-20T17:18:59+01:00</time>
      </trkpt>
      <trkpt lat="43.13829" lon="5.72471">
        <ele>39</ele>
        <time>2021-12-20T17:19:04+01:00</time>
      </trkpt>
      <trkpt lat="43.13677" lon="5.72478">
        <ele>29</ele>
        <time>2021-12-20T17:19:09+01:00</time>
      </trkpt>
      <trkpt lat="43.13653" lon="5.72549">
        <ele>12</ele>
        <time>2021-12-20T17:19:14+01:00</time>
      </trkpt>
      <trkpt lat="43.13695" lon="5.72567">
        <ele>12</ele>
        <time>2021-12-20T17:19:19+01:00</time>
      </trkpt>
      <trkpt lat="43.137" lon="5.72582">
        <ele>8</ele>
        <time>2021-12-20T17:19:24+01:00</time>
      </trkpt>
      <trkpt lat="43.1373" lon="5.72588">
        <ele>10</ele>
        <time>2021-12-20T17:19:29+01:00</time>
      </trkpt>
      <trkpt lat="43.1373" lon="5.72652">
        <ele>10</ele>
        <time>2021-12-20T17:19:34+01:00</time>
      </trkpt>
      <trkpt lat="43.13696" lon="5.72669">
        <ele>10</ele>
        <time>2021-12-20T17:19:39+01:00</time>
      </trkpt>
      <trkpt lat="43.13664" lon="5.72716">
        <ele>16</ele>
        <time>2021-12-20T17:19:44+01:00</time>
      </trkpt>
      <trkpt lat="43.13577" lon="5.72803">
        <ele>26</ele>
        <time>2021-12-20T17:19:49+01:00</time>
      </trkpt>
      <trkpt lat="43.13566" lon="5.72915">
        <ele>24</ele>
        <time>2021-12-20T17:19:54+01:00</time>
      </trkpt>
      <trkpt lat="43.13613" lon="5.72921">
        <ele>26</ele>
        <time>2021-12-20T17:19:59+01:00</time>
      </trkpt>
      <trkpt lat="43.13629" lon="5.72948">
        <ele>20</ele>
        <time>2021-12-20T17:20:04+01:00</time>
      </trkpt>
      <trkpt lat="43.13649" lon="5.72963">
        <ele>21</ele>
        <time>2021-12-20T17:20:09+01:00</time>
      </trkpt>
      <trkpt lat="43.13634" lon="5.73001">
        <ele>17</ele>
        <time>2021-12-20T17:20:14+01:00</time>
      </trkpt>
      <trkpt lat="43.13631" lon="5.73046">
        <ele>19</ele>
        <time>2021-12-20T17:20:19+01:00</time>
      </trkpt>
      <trkpt lat="43.13639" lon="5.7315">
        <ele>23</ele>
        <time>2021-12-20T17:20:24+01:00</time>
      </trkpt>
      <trkpt lat="43.13655" lon="5.73284">
        <ele>18</ele>
        <time>2021-12-20T17:20:29+01:00</time>
      </trkpt>
      <trkpt lat="43.13672" lon="5.73336">
        <ele>18</ele>
        <time>2021-12-20T17:20:34+01:00</time>
      </trkpt>
      <trkpt lat="43.13652" lon="5.7349">
        <ele>9</ele>
        <time>2021-12-20T17:20:39+01:00</time>
      </trkpt>
      <trkpt lat="43.13631" lon="5.73538">
        <ele>8</ele>
        <time>2021-12-20T17:20:44+01:00</time>
      </trkpt>
      <trkpt lat="43.13629" lon="5.73669">
        <ele>9</ele>
        <time>2021-12-20T17:20:49+01:00</time>
      </trkpt>
      <trkpt lat="43.13641" lon="5.73731">
        <ele>10</ele>
        <time>2021-12-20T17:20:54+01:00</time>
      </trkpt>
      <trkpt lat="43.13592" lon="5.73803">
        <ele>7</ele>
        <time>2021-12-20T17:20:59+01:00</time>
      </trkpt>
      <trkpt lat="43.13566" lon="5.73879">
        <ele>8</ele>
        <time>2021-12-20T17:21:04+01:00</time>
      </trkpt>
      <trkpt lat="43.13522" lon="5.73873">
        <ele>5</ele>
        <time>2021-12-20T17:21:09+01:00</time>
      </trkpt>
      <trkpt lat="43.13467" lon="5.73899">
        <ele>8</ele>
        <time>2021-12-20T17:21:14+01:00</time>
      </trkpt>
      <trkpt lat="43.13459" lon="5.74007">
        <ele>9</ele>
        <time>2021-12-20T17:21:19+01:00</time>
      </trkpt>
      <trkpt lat="43.13439" lon="5.74054">
        <ele>9</ele>
        <time>2021-12-20T17:21:24+01:00</time>
      </trkpt>
      <trkpt lat="43.13397" lon="5.7409">
        <ele>1</ele>
        <time>2021-12-20T17:21:29+01:00</time>
      </trkpt>
      <trkpt lat="43.13446" lon="5.74177">
        <ele>2</ele>
        <time>2021-12-20T17:21:34+01:00</time>
      </trkpt>
      <trkpt lat="43.13487" lon="5.74202">
        <ele>4</ele>
        <time>2021-12-20T17:21:39+01:00</time>
      </trkpt>
      <trkpt lat="43.13515" lon="5.74224">
        <ele>6</ele>
        <time>2021-12-20T17:21:44+01:00</time>
      </trkpt>
      <trkpt lat="43.13512" lon="5.74348">
        <ele>6</ele>
        <time>2021-12-20T17:21:49+01:00</time>
      </trkpt>
      <trkpt lat="43.13532" lon="5.74406">
        <ele>6</ele>
        <time>2021-12-20T17:21:54+01:00</time>
      </trkpt>
      <trkpt lat="43.1351" lon="5.74606">
        <ele>5</ele>
        <time>2021-12-20T17:21:59+01:00</time>
      </trkpt>
      <trkpt lat="43.13509" lon="5.7472">
        <ele>6</ele>
        <time>2021-12-20T17:22:04+01:00</time>
      </trkpt>
      <trkpt lat="43.13578" lon="5.7481">
        <ele>13</ele>
        <time>2021-12-20T17:22:09+01:00</time>
      </trkpt>
      <trkpt lat="43.13606" lon="5.74867">
        <ele>14</ele>
        <time>2021-12-20T17:22:14+01:00</time>
      </trkpt>
      <trkpt lat="43.13592" lon="5.75026">
        <ele>13</ele>
        <time>2021-12-20T17:22:19+01:00</time>
      </trkpt>
      <trkpt lat="43.13593" lon="5.75058">
        <ele>13</ele>
        <time>2021-12-20T17:22:24+01:00</time>
      </trkpt>
      <trkpt lat="43.1359" lon="5.75171">
        <ele>10</ele>
        <time>2021-12-20T17:22:29+01:00</time>
      </trkpt>
      <trkpt lat="43.13603" lon="5.75253">
        <ele>10</ele>
        <time>2021-12-20T17:22:34+01:00</time>
      </trkpt>
      <trkpt lat="43.13609" lon="5.75334">
        <ele>8</ele>
        <time>2021-12-20T17:22:39+01:00</time>
      </trkpt>
      <trkpt lat="43.13535" lon="5.75396">
        <ele>2</ele>
        <time>2021-12-20T17:22:44+01:00</time>
      </trkpt>
      <trkpt lat="43.13552" lon="5.75461">
        <ele>2</ele>
        <time>2021-12-20T17:22:49+01:00</time>
      </trkpt>
      <trkpt lat="43.13629" lon="5.75714">
        <ele>2</ele>
        <time>2021-12-20T17:22:54+01:00</time>
      </trkpt>
      <trkpt lat="43.13703" lon="5.76027">
        <ele>6</ele>
        <time>2021-12-20T17:22:59+01:00</time>
      </trkpt>
      <trkpt lat="43.1379" lon="5.76143">
        <ele>8</ele>
        <time>2021-12-20T17:23:04+01:00</time>
      </trkpt>
      <trkpt lat="43.13833" lon="5.76407">
        <ele>2</ele>
        <time>2021-12-20T17:23:09+01:00</time>
      </trkpt>
      <trkpt lat="43.1388" lon="5.76525">
        <ele>9</ele>
        <time>2021-12-20T17:23:14+01:00</time>
      </trkpt>
      <trkpt lat="43.13939" lon="5.76639">
        <ele>6</ele>
        <time>2021-12-20T17:23:19+01:00</time>
      </trkpt>
      <trkpt lat="43.13939" lon="5.76901">
        <ele>2</ele>
        <time>2021-12-20T17:23:24+01:00</time>
      </trkpt>
      <trkpt lat="43.13939" lon="5.76965">
        <ele>2</ele>
        <time>2021-12-20T17:23:29+01:00</time>
      </trkpt>
      <trkpt lat="43.13927" lon="5.77023">
        <ele>1</ele>
        <time>2021-12-20T17:23:34+01:00</time>
      </trkpt>
      <trkpt lat="43.13848" lon="5.77298">
        <ele>1</ele>
        <time>2021-12-20T17:23:39+01:00</time>
      </trkpt>
      <trkpt lat="43.13753" lon="5.77542">
        <ele>4</ele>
        <time>2021-12-20T17:23:44+01:00</time>
      </trkpt>
      <trkpt lat="43.1369" lon="5.77645">
        <ele>6</ele>
        <time>2021-12-20T17:23:49+01:00</time>
      </trkpt>
      <trkpt lat="43.13574" lon="5.7781">
        <ele>11</ele>
        <time>2021-12-20T17:23:54+01:00</time>
      </trkpt>
      <trkpt lat="43.13372" lon="5.7801">
        <ele>18</ele>
        <time>2021-12-20T17:23:59+01:00</time>
      </trkpt>
      <trkpt lat="43.13126" lon="5.7813">
        <ele>18</ele>
        <time>2021-12-20T17:24:04+01:00</time>
      </trkpt>
      <trkpt lat="43.12754" lon="5.78506">
        <ele>25</ele>
        <time>2021-12-20T17:24:09+01:00</time>
      </trkpt>
      <trkpt lat="43.12655" lon="5.78763">
        <ele>33</ele>
        <time>2021-12-20T17:24:14+01:00</time>
      </trkpt>
      <trkpt lat="43.12492" lon="5.78892">
        <ele>38</ele>
        <time>2021-12-20T17:24:19+01:00</time>
      </trkpt>
      <trkpt lat="43.12414" lon="5.79089">
        <ele>43</ele>
        <time>2021-12-20T17:24:24+01:00</time>
      </trkpt>
      <trkpt lat="43.12398" lon="5.79162">
        <ele>46</ele>
        <time>2021-12-20T17:24:29+01:00</time>
      </trkpt>
      <trkpt lat="43.12246" lon="5.79338">
        <ele>46</ele>
        <time>2021-12-20T17:24:34+01:00</time>
      </trkpt>
      <trkpt lat="43.12223" lon="5.79529">
        <ele>39</ele>
        <time>2021-12-20T17:24:39+01:00</time>
      </trkpt>
      <trkpt lat="43.12166" lon="5.79703">
        <ele>36</ele>
        <time>2021-12-20T17:24:44+01:00</time>
      </trkpt>
      <trkpt lat="43.12215" lon="5.79913">
        <ele>33</ele>
        <time>2021-12-20T17:24:49+01:00</time>
      </trkpt>
      <trkpt lat="43.12235" lon="5.80151">
        <ele>24</ele>
        <time>2021-12-20T17:24:54+01:00</time>
      </trkpt>
      <trkpt lat="43.12234" lon="5.80323">
        <ele>11</ele>
        <time>2021-12-20T17:24:59+01:00</time>
      </trkpt>
      <trkpt lat="43.12154" lon="5.80495">
        <ele>9</ele>
        <time>2021-12-20T17:25:04+01:00</time>
      </trkpt>
      <trkpt lat="43.12082" lon="5.80767">
        <ele>5</ele>
        <time>2021-12-20T17:25:09+01:00</time>
      </trkpt>
      <trkpt lat="43.11885" lon="5.811">
        <ele>4</ele>
        <time>2021-12-20T17:25:14+01:00</time>
      </trkpt>
      <trkpt lat="43.11866" lon="5.81263">
        <ele>4</ele>
        <time>2021-12-20T17:25:19+01:00</time>
      </trkpt>
      <trkpt lat="43.11773" lon="5.8119">
        <ele>3</ele>
        <time>2021-12-20T17:25:24+01:00</time>
      </trkpt>
      <trkpt lat="43.11285" lon="5.81134">
        <ele>1</ele>
        <time>2021-12-20T17:25:29+01:00</time>
      </trkpt>
      <trkpt lat="43.10667" lon="5.81445">
        <ele>3</ele>
        <time>2021-12-20T17:25:34+01:00</time>
      </trkpt>
      <trkpt lat="43.10368" lon="5.81926">
        <ele>9</ele>
        <time>2021-12-20T17:25:39+01:00</time>
      </trkpt>
      <trkpt lat="43.09455" lon="5.83385">
        <ele>25</ele>
        <time>2021-12-20T17:25:44+01:00</time>
      </trkpt>
      <trkpt lat="43.09402" lon="5.83827">
        <ele>29</ele>
        <time>2021-12-20T17:25:49+01:00</time>
      </trkpt>
      <trkpt lat="43.09337" lon="5.84123">
        <ele>31</ele>
        <time>2021-12-20T17:25:54+01:00</time>
      </trkpt>
      <trkpt lat="43.09348" lon="5.84477">
        <ele>35</ele>
        <time>2021-12-20T17:25:59+01:00</time>
      </trkpt>
      <trkpt lat="43.09539" lon="5.84804">
        <ele>43</ele>
        <time>2021-12-20T17:26:04+01:00</time>
      </trkpt>
      <trkpt lat="43.09763" lon="5.85125">
        <ele>45</ele>
        <time>2021-12-20T17:26:09+01:00</time>
      </trkpt>
      <trkpt lat="43.09768" lon="5.8522">
        <ele>41</ele>
        <time>2021-12-20T17:26:14+01:00</time>
      </trkpt>
      <trkpt lat="43.09872" lon="5.85535">
        <ele>35</ele>
        <time>2021-12-20T17:26:19+01:00</time>
      </trkpt>
      <trkpt lat="43.09942" lon="5.85636">
        <ele>32</ele>
        <time>2021-12-20T17:26:24+01:00</time>
      </trkpt>
      <trkpt lat="43.09959" lon="5.86256">
        <ele>61</ele>
        <time>2021-12-20T17:26:29+01:00</time>
      </trkpt>
      <trkpt lat="43.09948" lon="5.86333">
        <ele>57</ele>
        <time>2021-12-20T17:26:34+01:00</time>
      </trkpt>
      <trkpt lat="43.09951" lon="5.86443">
        <ele>51</ele>
        <time>2021-12-20T17:26:39+01:00</time>
      </trkpt>
      <trkpt lat="43.09926" lon="5.86657">
        <ele>36</ele>
        <time>2021-12-20T17:26:44+01:00</time>
      </trkpt>
      <trkpt lat="43.10141" lon="5.87275">
        <ele>10</ele>
        <time>2021-12-20T17:26:49+01:00</time>
      </trkpt>
      <trkpt lat="43.10205" lon="5.87599">
        <ele>6</ele>
        <time>2021-12-20T17:26:54+01:00</time>
      </trkpt>
      <trkpt lat="43.10139" lon="5.87756">
        <ele>5</ele>
        <time>2021-12-20T17:26:59+01:00</time>
      </trkpt>
      <trkpt lat="43.10105" lon="5.87973">
        <ele>4</ele>
        <time>2021-12-20T17:27:04+01:00</time>
      </trkpt>
      <trkpt lat="43.0995" lon="5.88299">
        <ele>5</ele>
        <time>2021-12-20T17:27:09+01:00</time>
      </trkpt>
      <trkpt lat="43.09981" lon="5.88331">
        <ele>4</ele>
        <time>2021-12-20T17:27:14+01:00</time>
      </trkpt>
      <trkpt lat="43.09931" lon="5.88423">
        <ele>4</ele>
        <time>2021-12-20T17:27:19+01:00</time>
      </trkpt>
      <trkpt lat="43.09906" lon="5.88434">
        <ele>4</ele>
        <time>2021-12-20T17:27:24+01:00</time>
      </trkpt>
      <trkpt lat="43.09886" lon="5.88771">
        <ele>5</ele>
        <time>2021-12-20T17:27:29+01:00</time>
      </trkpt>
      <trkpt lat="43.09732" lon="5.88823">
        <ele>11</ele>
        <time>2021-12-20T17:27:34+01:00</time>
      </trkpt>
    </trkseg>
  </trk>
</gpx>